Terminal Aerodrome Forecast
Issued by NWS Jackson, KY

Home | Current Version | Previous Version | Text Only | Print | Product List | Glossary On
Versions: 1 2 3 4 5 6 7 8 9 10 11 12 13 14
044
FTUS43 KJKL 221059 AAA
TAFLOZ
TAF AMD
KLOZ 221059Z 2211/2306 VRB03KT 3/4SM BR BKN002 BKN250
     FM221330 VRB03KT P6SM FEW250=

USA.gov is the U.S. government's official web portal to all federal, state and local government web resources and services.